sensor_id;sensor_type;location;lat;lon;timestamp;P1;durP1;ratioP1;P2;durP2;ratioP2
59960;SDS011;55902;-37.980;-63.602;2022-07-23T00:00:48;4.60;;;1.88;;
59960;SDS011;55902;-37.980;-63.602;2022-07-23T00:03:15;5.97;;;2.00;;
59960;SDS011;55902;-37.980;-63.602;2022-07-23T00:05:42;3.67;;;1.92;;
59960;SDS011;55902;-37.980;-63.602;2022-07-23T00:08:09;3.13;;;1.88;;
59960;SDS011;55902;-37.980;-63.602;2022-07-23T00:10:36;2.65;;;1.77;;
59960;SDS011;55902;-37.980;-63.602;2022-07-23T00:13:03;1.98;;;1.60;;
59960;SDS011;55902;-37.980;-63.602;2022-07-23T00:15:30;4.63;;;1.60;;
59960;SDS011;55902;-37.980;-63.602;2022-07-23T00:17:57;3.00;;;1.60;;
59960;SDS011;55902;-37.980;-63.602;2022-07-23T00:20:24;4.75;;;1.70;;
59960;SDS011;55902;-37.980;-63.602;2022-07-23T00:22:51;3.22;;;1.80;;
59960;SDS011;55902;-37.980;-63.602;2022-07-23T00:25:21;4.13;;;1.70;;
59960;SDS011;55902;-37.980;-63.602;2022-07-23T00:27:48;3.17;;;1.60;;
59960;SDS011;55902;-37.980;-63.602;2022-07-23T00:30:15;3.15;;;1.60;;
59960;SDS011;55902;-37.980;-63.602;2022-07-23T00:33:01;3.33;;;1.75;;
59960;SDS011;55902;-37.980;-63.602;2022-07-23T00:35:30;5.30;;;1.70;;
59960;SDS011;55902;-37.980;-63.602;2022-07-23T00:38:06;1.95;;;1.60;;
59960;SDS011;55902;-37.980;-63.602;2022-07-23T00:40:35;2.45;;;1.58;;
59960;SDS011;55902;-37.980;-63.602;2022-07-23T00:43:03;4.93;;;1.83;;
59960;SDS011;55902;-37.980;-63.602;2022-07-23T00:45:30;2.42;;;1.77;;
59960;SDS011;55902;-37.980;-63.602;2022-07-23T00:47:57;5.60;;;1.70;;
59960;SDS011;55902;-37.980;-63.602;2022-07-23T00:50:25;3.47;;;1.70;;
59960;SDS011;55902;-37.980;-63.602;2022-07-23T00:52:52;3.03;;;1.70;;
59960;SDS011;55902;-37.980;-63.602;2022-07-23T00:55:19;2.47;;;1.85;;
59960;SDS011;55902;-37.980;-63.602;2022-07-23T00:57:46;4.45;;;2.50;;
59960;SDS011;55902;-37.980;-63.602;2022-07-23T01:00:14;6.28;;;2.00;;
59960;SDS011;55902;-37.980;-63.602;2022-07-23T01:02:41;3.40;;;1.80;;
59960;SDS011;55902;-37.980;-63.602;2022-07-23T01:05:08;3.63;;;1.85;;
59960;SDS011;55902;-37.980;-63.602;2022-07-23T01:07:36;3.55;;;1.77;;
59960;SDS011;55902;-37.980;-63.602;2022-07-23T01:10:03;2.88;;;1.83;;
59960;SDS011;55902;-37.980;-63.602;2022-07-23T01:12:51;3.38;;;1.70;;
59960;SDS011;55902;-37.980;-63.602;2022-07-23T01:15:18;2.53;;;1.70;;
59960;SDS011;55902;-37.980;-63.602;2022-07-23T01:24:28;3.60;;;2.15;;
59960;SDS011;55902;-37.980;-63.602;2022-07-23T01:26:55;4.70;;;2.40;;
59960;SDS011;55902;-37.980;-63.602;2022-07-23T01:29:22;4.80;;;2.10;;
59960;SDS011;55902;-37.980;-63.602;2022-07-23T01:31:49;2.63;;;1.90;;
59960;SDS011;55902;-37.980;-63.602;2022-07-23T01:34:16;5.18;;;2.25;;
59960;SDS011;55902;-37.980;-63.602;2022-07-23T01:36:42;6.38;;;1.92;;
59960;SDS011;55902;-37.980;-63.602;2022-07-23T01:39:10;4.55;;;2.05;;
59960;SDS011;55902;-37.980;-63.602;2022-07-23T01:41:37;4.53;;;1.70;;
59960;SDS011;55902;-37.980;-63.602;2022-07-23T01:44:04;3.38;;;1.60;;
59960;SDS011;55902;-37.980;-63.602;2022-07-23T01:46:31;2.50;;;1.80;;
59960;SDS011;55902;-37.980;-63.602;2022-07-23T01:48:58;4.78;;;1.83;;
59960;SDS011;55902;-37.980;-63.602;2022-07-23T01:51:24;5.85;;;2.00;;
59960;SDS011;55902;-37.980;-63.602;2022-07-23T01:53:51;4.00;;;2.20;;
59960;SDS011;55902;-37.980;-63.602;2022-07-23T01:56:18;4.15;;;1.90;;
59960;SDS011;55902;-37.980;-63.602;2022-07-23T01:58:47;3.88;;;2.20;;
59960;SDS011;55902;-37.980;-63.602;2022-07-23T02:01:14;3.97;;;2.15;;
59960;SDS011;55902;-37.980;-63.602;2022-07-23T02:03:41;6.38;;;1.90;;
59960;SDS011;55902;-37.980;-63.602;2022-07-23T02:06:08;4.90;;;2.53;;
59960;SDS011;55902;-37.980;-63.602;2022-07-23T02:08:35;3.85;;;2.20;;
59960;SDS011;55902;-37.980;-63.602;2022-07-23T02:11:02;5.38;;;2.10;;
59960;SDS011;55902;-37.980;-63.602;2022-07-23T02:13:29;6.40;;;2.25;;
59960;SDS011;55902;-37.980;-63.602;2022-07-23T02:15:56;3.38;;;2.10;;
59960;SDS011;55902;-37.980;-63.602;2022-07-23T02:18:22;5.70;;;2.00;;
59960;SDS011;55902;-37.980;-63.602;2022-07-23T02:20:49;4.43;;;2.13;;
59960;SDS011;55902;-37.980;-63.602;2022-07-23T02:23:16;3.13;;;2.08;;
59960;SDS011;55902;-37.980;-63.602;2022-07-23T02:25:43;4.45;;;2.30;;
59960;SDS011;55902;-37.980;-63.602;2022-07-23T02:28:10;4.30;;;2.20;;
59960;SDS011;55902;-37.980;-63.602;2022-07-23T02:30:37;7.90;;;4.53;;
59960;SDS011;55902;-37.980;-63.602;2022-07-23T02:33:07;9.77;;;4.40;;
59960;SDS011;55902;-37.980;-63.602;2022-07-23T02:46:19;26.42;;;12.68;;
59960;SDS011;55902;-37.980;-63.602;2022-07-23T02:48:46;25.80;;;12.88;;
59960;SDS011;55902;-37.980;-63.602;2022-07-23T02:51:13;23.50;;;11.82;;
59960;SDS011;55902;-37.980;-63.602;2022-07-23T02:53:40;19.73;;;10.48;;
59960;SDS011;55902;-37.980;-63.602;2022-07-23T02:56:08;20.55;;;9.73;;
59960;SDS011;55902;-37.980;-63.602;2022-07-23T02:58:35;25.85;;;12.40;;
59960;SDS011;55902;-37.980;-63.602;2022-07-23T03:01:02;25.35;;;12.35;;
59960;SDS011;55902;-37.980;-63.602;2022-07-23T03:03:29;23.92;;;11.90;;
59960;SDS011;55902;-37.980;-63.602;2022-07-23T03:05:56;18.90;;;9.93;;
59960;SDS011;55902;-37.980;-63.602;2022-07-23T03:08:23;16.48;;;7.65;;
59960;SDS011;55902;-37.980;-63.602;2022-07-23T03:10:50;17.67;;;8.82;;
59960;SDS011;55902;-37.980;-63.602;2022-07-23T03:13:17;23.95;;;9.88;;
59960;SDS011;55902;-37.980;-63.602;2022-07-23T03:15:44;20.33;;;9.32;;
59960;SDS011;55902;-37.980;-63.602;2022-07-23T03:18:10;26.00;;;10.25;;
59960;SDS011;55902;-37.980;-63.602;2022-07-23T03:20:37;24.40;;;9.88;;
59960;SDS011;55902;-37.980;-63.602;2022-07-23T03:23:04;21.27;;;8.85;;
59960;SDS011;55902;-37.980;-63.602;2022-07-23T03:25:31;18.23;;;8.65;;
59960;SDS011;55902;-37.980;-63.602;2022-07-23T03:27:58;16.77;;;7.70;;
59960;SDS011;55902;-37.980;-63.602;2022-07-23T03:30:25;8.98;;;4.55;;
59960;SDS011;55902;-37.980;-63.602;2022-07-23T03:32:52;10.45;;;3.50;;
59960;SDS011;55902;-37.980;-63.602;2022-07-23T03:35:18;5.72;;;3.22;;
59960;SDS011;55902;-37.980;-63.602;2022-07-23T03:37:46;4.28;;;2.60;;
59960;SDS011;55902;-37.980;-63.602;2022-07-23T03:40:13;6.00;;;2.55;;
59960;SDS011;55902;-37.980;-63.602;2022-07-23T03:42:39;5.47;;;2.70;;
59960;SDS011;55902;-37.980;-63.602;2022-07-23T03:45:07;5.68;;;2.75;;
59960;SDS011;55902;-37.980;-63.602;2022-07-23T03:47:37;4.22;;;2.47;;
59960;SDS011;55902;-37.980;-63.602;2022-07-23T03:50:04;5.18;;;2.55;;
59960;SDS011;55902;-37.980;-63.602;2022-07-23T03:52:31;6.22;;;2.90;;
59960;SDS011;55902;-37.980;-63.602;2022-07-23T03:54:58;6.55;;;2.72;;
59960;SDS011;55902;-37.980;-63.602;2022-07-23T03:57:26;5.93;;;2.88;;
59960;SDS011;55902;-37.980;-63.602;2022-07-23T03:59:53;4.93;;;2.72;;
59960;SDS011;55902;-37.980;-63.602;2022-07-23T04:02:20;3.97;;;2.75;;
59960;SDS011;55902;-37.980;-63.602;2022-07-23T04:04:50;5.65;;;3.13;;
59960;SDS011;55902;-37.980;-63.602;2022-07-23T04:07:16;6.75;;;2.72;;
59960;SDS011;55902;-37.980;-63.602;2022-07-23T04:09:43;5.03;;;3.03;;
59960;SDS011;55902;-37.980;-63.602;2022-07-23T04:12:10;7.30;;;3.38;;
59960;SDS011;55902;-37.980;-63.602;2022-07-23T04:14:37;5.97;;;3.30;;
59960;SDS011;55902;-37.980;-63.602;2022-07-23T04:17:04;6.30;;;3.08;;
59960;SDS011;55902;-37.980;-63.602;2022-07-23T04:19:31;6.32;;;3.42;;
59960;SDS011;55902;-37.980;-63.602;2022-07-23T04:21:58;5.45;;;2.97;;
59960;SDS011;55902;-37.980;-63.602;2022-07-23T04:24:25;7.47;;;3.20;;
59960;SDS011;55902;-37.980;-63.602;2022-07-23T04:26:51;5.80;;;3.17;;
59960;SDS011;55902;-37.980;-63.602;2022-07-23T04:29:18;4.93;;;3.03;;
59960;SDS011;55902;-37.980;-63.602;2022-07-23T04:31:45;6.15;;;3.35;;
59960;SDS011;55902;-37.980;-63.602;2022-07-23T04:34:12;7.28;;;3.20;;
59960;SDS011;55902;-37.980;-63.602;2022-07-23T04:36:39;5.53;;;3.40;;
59960;SDS011;55902;-37.980;-63.602;2022-07-23T04:39:06;6.68;;;3.30;;
59960;SDS011;55902;-37.980;-63.602;2022-07-23T04:41:33;6.38;;;3.38;;
59960;SDS011;55902;-37.980;-63.602;2022-07-23T04:44:00;6.70;;;3.33;;
59960;SDS011;55902;-37.980;-63.602;2022-07-23T04:46:27;6.97;;;3.63;;
59960;SDS011;55902;-37.980;-63.602;2022-07-23T04:48:54;5.55;;;3.10;;
59960;SDS011;55902;-37.980;-63.602;2022-07-23T04:51:21;7.35;;;4.30;;
59960;SDS011;55902;-37.980;-63.602;2022-07-23T04:53:48;5.75;;;3.35;;
59960;SDS011;55902;-37.980;-63.602;2022-07-23T04:56:15;6.07;;;3.22;;
59960;SDS011;55902;-37.980;-63.602;2022-07-23T04:58:42;6.15;;;3.40;;
59960;SDS011;55902;-37.980;-63.602;2022-07-23T05:01:09;5.78;;;3.42;;
59960;SDS011;55902;-37.980;-63.602;2022-07-23T05:03:36;6.53;;;3.60;;
59960;SDS011;55902;-37.980;-63.602;2022-07-23T05:16:08;6.38;;;3.33;;
59960;SDS011;55902;-37.980;-63.602;2022-07-23T05:18:35;5.93;;;3.50;;
59960;SDS011;55902;-37.980;-63.602;2022-07-23T05:21:02;4.55;;;3.22;;
59960;SDS011;55902;-37.980;-63.602;2022-07-23T05:23:28;6.93;;;3.42;;
59960;SDS011;55902;-37.980;-63.602;2022-07-23T05:25:58;5.72;;;3.60;;
59960;SDS011;55902;-37.980;-63.602;2022-07-23T05:28:25;7.32;;;3.72;;
59960;SDS011;55902;-37.980;-63.602;2022-07-23T05:30:52;9.70;;;3.40;;
59960;SDS011;55902;-37.980;-63.602;2022-07-23T05:33:19;7.15;;;3.47;;
59960;SDS011;55902;-37.980;-63.602;2022-07-23T05:35:46;7.15;;;3.72;;
59960;SDS011;55902;-37.980;-63.602;2022-07-23T05:38:13;5.40;;;3.40;;
59960;SDS011;55902;-37.980;-63.602;2022-07-23T05:40:40;9.63;;;3.50;;
59960;SDS011;55902;-37.980;-63.602;2022-07-23T05:43:06;7.38;;;3.60;;
59960;SDS011;55902;-37.980;-63.602;2022-07-23T05:45:33;5.65;;;3.40;;
59960;SDS011;55902;-37.980;-63.602;2022-07-23T05:48:00;6.43;;;3.30;;
59960;SDS011;55902;-37.980;-63.602;2022-07-23T05:50:27;9.68;;;4.20;;
59960;SDS011;55902;-37.980;-63.602;2022-07-23T05:52:54;8.90;;;3.85;;
59960;SDS011;55902;-37.980;-63.602;2022-07-23T05:55:21;6.28;;;3.53;;
59960;SDS011;55902;-37.980;-63.602;2022-07-23T05:57:48;5.90;;;3.38;;
59960;SDS011;55902;-37.980;-63.602;2022-07-23T06:00:14;7.50;;;3.78;;
59960;SDS011;55902;-37.980;-63.602;2022-07-23T06:02:41;6.93;;;3.80;;
59960;SDS011;55902;-37.980;-63.602;2022-07-23T06:05:08;5.65;;;3.50;;
59960;SDS011;55902;-37.980;-63.602;2022-07-23T06:07:35;7.30;;;4.00;;
59960;SDS011;55902;-37.980;-63.602;2022-07-23T06:10:03;5.82;;;3.38;;
59960;SDS011;55902;-37.980;-63.602;2022-07-23T06:12:30;6.22;;;3.45;;
59960;SDS011;55902;-37.980;-63.602;2022-07-23T06:14:57;8.50;;;3.35;;
59960;SDS011;55902;-37.980;-63.602;2022-07-23T06:17:24;6.85;;;3.33;;
59960;SDS011;55902;-37.980;-63.602;2022-07-23T06:20:10;5.82;;;3.30;;
59960;SDS011;55902;-37.980;-63.602;2022-07-23T06:22:37;5.60;;;3.40;;
59960;SDS011;55902;-37.980;-63.602;2022-07-23T06:25:04;6.93;;;3.40;;
59960;SDS011;55902;-37.980;-63.602;2022-07-23T06:27:32;5.35;;;3.20;;
59960;SDS011;55902;-37.980;-63.602;2022-07-23T06:29:59;5.50;;;3.40;;
59960;SDS011;55902;-37.980;-63.602;2022-07-23T06:32:26;4.90;;;3.33;;
59960;SDS011;55902;-37.980;-63.602;2022-07-23T06:34:53;5.00;;;3.35;;
59960;SDS011;55902;-37.980;-63.602;2022-07-23T06:37:20;6.10;;;3.90;;
59960;SDS011;55902;-37.980;-63.602;2022-07-23T06:39:47;9.55;;;3.55;;
59960;SDS011;55902;-37.980;-63.602;2022-07-23T06:42:14;4.68;;;3.67;;
59960;SDS011;55902;-37.980;-63.602;2022-07-23T06:44:41;5.75;;;3.50;;
59960;SDS011;55902;-37.980;-63.602;2022-07-23T06:47:08;10.70;;;4.30;;
59960;SDS011;55902;-37.980;-63.602;2022-07-23T06:49:35;8.32;;;3.90;;
59960;SDS011;55902;-37.980;-63.602;2022-07-23T06:52:02;9.05;;;4.00;;
59960;SDS011;55902;-37.980;-63.602;2022-07-23T06:54:29;7.53;;;4.45;;
59960;SDS011;55902;-37.980;-63.602;2022-07-23T06:56:56;8.63;;;3.72;;
59960;SDS011;55902;-37.980;-63.602;2022-07-23T06:59:23;8.52;;;3.90;;
59960;SDS011;55902;-37.980;-63.602;2022-07-23T07:01:49;6.97;;;3.85;;
59960;SDS011;55902;-37.980;-63.602;2022-07-23T07:04:16;9.35;;;3.70;;
59960;SDS011;55902;-37.980;-63.602;2022-07-23T07:10:05;5.93;;;3.67;;
59960;SDS011;55902;-37.980;-63.602;2022-07-23T07:12:33;7.38;;;3.33;;
59960;SDS011;55902;-37.980;-63.602;2022-07-23T07:14:59;5.43;;;3.22;;
59960;SDS011;55902;-37.980;-63.602;2022-07-23T07:17:26;8.20;;;3.42;;
59960;SDS011;55902;-37.980;-63.602;2022-07-23T07:19:54;8.30;;;3.47;;
59960;SDS011;55902;-37.980;-63.602;2022-07-23T07:22:21;8.63;;;3.63;;
59960;SDS011;55902;-37.980;-63.602;2022-07-23T07:24:48;7.38;;;3.20;;
59960;SDS011;55902;-37.980;-63.602;2022-07-23T07:27:15;8.75;;;3.53;;
59960;SDS011;55902;-37.980;-63.602;2022-07-23T07:29:42;6.70;;;3.25;;
59960;SDS011;55902;-37.980;-63.602;2022-07-23T07:32:09;5.75;;;3.20;;
59960;SDS011;55902;-37.980;-63.602;2022-07-23T07:34:36;5.45;;;2.92;;
59960;SDS011;55902;-37.980;-63.602;2022-07-23T07:37:02;6.05;;;3.17;;
59960;SDS011;55902;-37.980;-63.602;2022-07-23T07:39:32;5.47;;;3.03;;
59960;SDS011;55902;-37.980;-63.602;2022-07-23T07:41:59;5.00;;;3.03;;
59960;SDS011;55902;-37.980;-63.602;2022-07-23T07:44:26;6.55;;;3.30;;
59960;SDS011;55902;-37.980;-63.602;2022-07-23T07:46:53;6.03;;;3.35;;
59960;SDS011;55902;-37.980;-63.602;2022-07-23T07:49:20;4.53;;;3.10;;
59960;SDS011;55902;-37.980;-63.602;2022-07-23T07:51:47;6.88;;;3.33;;
59960;SDS011;55902;-37.980;-63.602;2022-07-23T07:54:14;4.63;;;3.00;;
59960;SDS011;55902;-37.980;-63.602;2022-07-23T07:56:41;6.15;;;3.28;;
59960;SDS011;55902;-37.980;-63.602;2022-07-23T07:59:07;5.70;;;3.10;;
59960;SDS011;55902;-37.980;-63.602;2022-07-23T08:01:34;6.53;;;3.63;;
59960;SDS011;55902;-37.980;-63.602;2022-07-23T08:04:01;4.85;;;3.22;;
59960;SDS011;55902;-37.980;-63.602;2022-07-23T08:06:28;5.75;;;3.30;;
59960;SDS011;55902;-37.980;-63.602;2022-07-23T08:08:55;6.15;;;2.90;;
59960;SDS011;55902;-37.980;-63.602;2022-07-23T08:11:22;6.40;;;3.13;;
59960;SDS011;55902;-37.980;-63.602;2022-07-23T08:13:49;7.80;;;3.22;;
59960;SDS011;55902;-37.980;-63.602;2022-07-23T08:16:15;4.65;;;3.10;;
59960;SDS011;55902;-37.980;-63.602;2022-07-23T08:18:42;5.50;;;3.30;;
59960;SDS011;55902;-37.980;-63.602;2022-07-23T08:21:09;4.60;;;3.05;;
59960;SDS011;55902;-37.980;-63.602;2022-07-23T08:23:36;6.32;;;3.10;;
59960;SDS011;55902;-37.980;-63.602;2022-07-23T08:26:03;7.32;;;3.60;;
59960;SDS011;55902;-37.980;-63.602;2022-07-23T08:28:30;7.18;;;3.10;;
59960;SDS011;55902;-37.980;-63.602;2022-07-23T08:31:00;5.80;;;3.13;;
59960;SDS011;55902;-37.980;-63.602;2022-07-23T08:33:27;6.15;;;3.13;;
59960;SDS011;55902;-37.980;-63.602;2022-07-23T08:35:54;6.88;;;3.38;;
59960;SDS011;55902;-37.980;-63.602;2022-07-23T08:38:21;6.30;;;3.10;;
59960;SDS011;55902;-37.980;-63.602;2022-07-23T08:40:54;6.18;;;3.22;;
59960;SDS011;55902;-37.980;-63.602;2022-07-23T08:43:28;8.43;;;3.30;;
59960;SDS011;55902;-37.980;-63.602;2022-07-23T08:45:56;4.18;;;3.17;;
59960;SDS011;55902;-37.980;-63.602;2022-07-23T08:48:26;7.72;;;3.28;;
59960;SDS011;55902;-37.980;-63.602;2022-07-23T08:50:56;9.85;;;3.25;;
59960;SDS011;55902;-37.980;-63.602;2022-07-23T08:53:25;4.97;;;3.50;;
59960;SDS011;55902;-37.980;-63.602;2022-07-23T08:55:54;7.18;;;3.55;;
59960;SDS011;55902;-37.980;-63.602;2022-07-23T08:58:23;6.63;;;3.70;;
59960;SDS011;55902;-37.980;-63.602;2022-07-23T09:00:53;6.45;;;3.67;;
59960;SDS011;55902;-37.980;-63.602;2022-07-23T09:03:24;6.13;;;4.13;;
59960;SDS011;55902;-37.980;-63.602;2022-07-23T09:05:53;9.75;;;4.00;;
59960;SDS011;55902;-37.980;-63.602;2022-07-23T09:08:24;8.07;;;3.97;;
59960;SDS011;55902;-37.980;-63.602;2022-07-23T09:11:02;7.00;;;4.20;;
59960;SDS011;55902;-37.980;-63.602;2022-07-23T09:16:23;7.35;;;4.30;;
59960;SDS011;55902;-37.980;-63.602;2022-07-23T09:18:54;7.80;;;4.38;;
59960;SDS011;55902;-37.980;-63.602;2022-07-23T09:21:23;8.63;;;4.45;;
59960;SDS011;55902;-37.980;-63.602;2022-07-23T09:24:02;7.07;;;4.18;;
59960;SDS011;55902;-37.980;-63.602;2022-07-23T09:26:43;10.00;;;4.22;;
59960;SDS011;55902;-37.980;-63.602;2022-07-23T09:29:12;8.02;;;4.38;;
59960;SDS011;55902;-37.980;-63.602;2022-07-23T09:34:31;8.15;;;4.00;;
59960;SDS011;55902;-37.980;-63.602;2022-07-23T09:37:10;8.43;;;4.22;;
59960;SDS011;55902;-37.980;-63.602;2022-07-23T09:39:37;6.40;;;4.07;;
59960;SDS011;55902;-37.980;-63.602;2022-07-23T09:42:15;8.10;;;4.35;;
59960;SDS011;55902;-37.980;-63.602;2022-07-23T09:44:43;8.40;;;4.20;;
59960;SDS011;55902;-37.980;-63.602;2022-07-23T09:47:11;9.13;;;4.47;;
59960;SDS011;55902;-37.980;-63.602;2022-07-23T09:49:38;6.25;;;4.20;;
59960;SDS011;55902;-37.980;-63.602;2022-07-23T09:52:05;8.07;;;4.15;;
59960;SDS011;55902;-37.980;-63.602;2022-07-23T09:57:12;7.10;;;4.20;;
59960;SDS011;55902;-37.980;-63.602;2022-07-23T09:59:40;7.82;;;4.40;;
59960;SDS011;55902;-37.980;-63.602;2022-07-23T10:02:09;8.35;;;4.97;;
59960;SDS011;55902;-37.980;-63.602;2022-07-23T10:04:38;9.52;;;4.80;;
59960;SDS011;55902;-37.980;-63.602;2022-07-23T10:07:07;8.13;;;4.70;;
59960;SDS011;55902;-37.980;-63.602;2022-07-23T10:09:36;8.95;;;5.05;;
59960;SDS011;55902;-37.980;-63.602;2022-07-23T10:12:09;11.20;;;5.35;;
59960;SDS011;55902;-37.980;-63.602;2022-07-23T10:14:53;9.63;;;4.80;;
59960;SDS011;55902;-37.980;-63.602;2022-07-23T10:17:19;8.88;;;5.38;;
59960;SDS011;55902;-37.980;-63.602;2022-07-23T10:19:46;9.23;;;5.70;;
59960;SDS011;55902;-37.980;-63.602;2022-07-23T10:22:15;10.57;;;6.03;;
59960;SDS011;55902;-37.980;-63.602;2022-07-23T10:25:04;11.07;;;6.68;;
59960;SDS011;55902;-37.980;-63.602;2022-07-23T10:30:10;12.53;;;7.27;;
59960;SDS011;55902;-37.980;-63.602;2022-07-23T10:35:38;14.93;;;7.50;;
59960;SDS011;55902;-37.980;-63.602;2022-07-23T10:41:19;15.55;;;7.00;;
59960;SDS011;55902;-37.980;-63.602;2022-07-23T10:44:16;12.90;;;7.35;;
59960;SDS011;55902;-37.980;-63.602;2022-07-23T10:58:01;11.93;;;7.70;;
59960;SDS011;55902;-37.980;-63.602;2022-07-23T11:00:29;11.95;;;7.50;;
59960;SDS011;55902;-37.980;-63.602;2022-07-23T11:02:58;13.73;;;7.93;;
59960;SDS011;55902;-37.980;-63.602;2022-07-23T11:05:47;12.20;;;7.30;;
59960;SDS011;55902;-37.980;-63.602;2022-07-23T11:08:17;13.55;;;8.07;;
59960;SDS011;55902;-37.980;-63.602;2022-07-23T11:16:45;12.93;;;8.13;;
59960;SDS011;55902;-37.980;-63.602;2022-07-23T11:19:15;16.25;;;8.55;;
59960;SDS011;55902;-37.980;-63.602;2022-07-23T11:21:43;14.70;;;8.13;;
59960;SDS011;55902;-37.980;-63.602;2022-07-23T11:24:14;17.42;;;8.52;;
59960;SDS011;55902;-37.980;-63.602;2022-07-23T11:26:43;14.70;;;8.80;;
59960;SDS011;55902;-37.980;-63.602;2022-07-23T11:36:59;19.27;;;9.20;;
59960;SDS011;55902;-37.980;-63.602;2022-07-23T11:39:27;17.85;;;8.88;;
59960;SDS011;55902;-37.980;-63.602;2022-07-23T11:41:56;13.52;;;8.50;;
59960;SDS011;55902;-37.980;-63.602;2022-07-23T11:44:27;18.02;;;8.88;;
59960;SDS011;55902;-37.980;-63.602;2022-07-23T11:47:02;15.13;;;8.90;;
59960;SDS011;55902;-37.980;-63.602;2022-07-23T11:49:33;15.98;;;9.05;;
59960;SDS011;55902;-37.980;-63.602;2022-07-23T11:54:51;14.27;;;8.55;;
59960;SDS011;55902;-37.980;-63.602;2022-07-23T11:57:20;15.88;;;8.55;;
59960;SDS011;55902;-37.980;-63.602;2022-07-23T11:59:51;16.30;;;9.32;;
59960;SDS011;55902;-37.980;-63.602;2022-07-23T12:02:21;19.65;;;10.38;;
59960;SDS011;55902;-37.980;-63.602;2022-07-23T12:04:49;18.17;;;9.05;;
59960;SDS011;55902;-37.980;-63.602;2022-07-23T12:10:04;19.75;;;9.23;;
59960;SDS011;55902;-37.980;-63.602;2022-07-23T12:12:45;16.80;;;9.07;;
59960;SDS011;55902;-37.980;-63.602;2022-07-23T12:15:15;16.42;;;9.32;;
59960;SDS011;55902;-37.980;-63.602;2022-07-23T12:17:45;14.88;;;9.10;;
59960;SDS011;55902;-37.980;-63.602;2022-07-23T12:20:14;18.20;;;9.20;;
59960;SDS011;55902;-37.980;-63.602;2022-07-23T12:22:47;17.00;;;9.45;;
59960;SDS011;55902;-37.980;-63.602;2022-07-23T12:25:16;18.02;;;9.60;;
59960;SDS011;55902;-37.980;-63.602;2022-07-23T12:27:45;16.80;;;9.70;;
59960;SDS011;55902;-37.980;-63.602;2022-07-23T12:32:54;19.92;;;9.85;;
59960;SDS011;55902;-37.980;-63.602;2022-07-23T12:35:23;16.70;;;10.30;;
59960;SDS011;55902;-37.980;-63.602;2022-07-23T12:37:59;20.13;;;10.07;;
59960;SDS011;55902;-37.980;-63.602;2022-07-23T12:40:29;18.15;;;9.32;;
59960;SDS011;55902;-37.980;-63.602;2022-07-23T12:42:59;19.33;;;10.43;;
59960;SDS011;55902;-37.980;-63.602;2022-07-23T12:48:17;18.55;;;10.00;;
59960;SDS011;55902;-37.980;-63.602;2022-07-23T12:51:07;19.88;;;11.20;;
59960;SDS011;55902;-37.980;-63.602;2022-07-23T12:53:50;17.73;;;10.90;;
59960;SDS011;55902;-37.980;-63.602;2022-07-23T13:01:23;18.70;;;10.43;;
59960;SDS011;55902;-37.980;-63.602;2022-07-23T13:06:33;21.42;;;13.00;;
59960;SDS011;55902;-37.980;-63.602;2022-07-23T13:09:03;20.65;;;10.90;;
59960;SDS011;55902;-37.980;-63.602;2022-07-23T13:11:32;20.30;;;10.95;;
59960;SDS011;55902;-37.980;-63.602;2022-07-23T13:13:59;19.40;;;10.90;;
59960;SDS011;55902;-37.980;-63.602;2022-07-23T13:16:27;23.25;;;13.60;;
59960;SDS011;55902;-37.980;-63.602;2022-07-23T13:18:55;22.60;;;12.82;;
59960;SDS011;55902;-37.980;-63.602;2022-07-23T13:21:22;19.52;;;11.90;;
59960;SDS011;55902;-37.980;-63.602;2022-07-23T13:23:50;21.73;;;12.63;;
59960;SDS011;55902;-37.980;-63.602;2022-07-23T13:26:17;15.75;;;10.65;;
59960;SDS011;55902;-37.980;-63.602;2022-07-23T13:28:44;21.38;;;11.15;;
59960;SDS011;55902;-37.980;-63.602;2022-07-23T13:31:11;19.90;;;11.25;;
59960;SDS011;55902;-37.980;-63.602;2022-07-23T13:33:38;20.60;;;11.18;;
59960;SDS011;55902;-37.980;-63.602;2022-07-23T13:36:05;20.38;;;12.73;;
59960;SDS011;55902;-37.980;-63.602;2022-07-23T13:38:32;22.08;;;11.32;;
59960;SDS011;55902;-37.980;-63.602;2022-07-23T13:40:59;17.98;;;10.82;;
59960;SDS011;55902;-37.980;-63.602;2022-07-23T13:43:28;18.95;;;11.00;;
59960;SDS011;55902;-37.980;-63.602;2022-07-23T13:45:55;20.90;;;12.05;;
59960;SDS011;55902;-37.980;-63.602;2022-07-23T13:48:22;22.88;;;12.60;;
59960;SDS011;55902;-37.980;-63.602;2022-07-23T13:50:50;16.80;;;11.43;;
59960;SDS011;55902;-37.980;-63.602;2022-07-23T13:53:22;20.98;;;12.40;;
59960;SDS011;55902;-37.980;-63.602;2022-07-23T13:55:50;22.20;;;12.13;;
59960;SDS011;55902;-37.980;-63.602;2022-07-23T13:58:18;22.20;;;12.23;;
59960;SDS011;55902;-37.980;-63.602;2022-07-23T14:00:46;21.55;;;13.18;;
59960;SDS011;55902;-37.980;-63.602;2022-07-23T14:03:15;18.50;;;11.48;;
59960;SDS011;55902;-37.980;-63.602;2022-07-23T14:05:43;22.05;;;12.73;;
59960;SDS011;55902;-37.980;-63.602;2022-07-23T14:08:10;20.45;;;11.93;;
59960;SDS011;55902;-37.980;-63.602;2022-07-23T14:10:37;23.73;;;13.35;;
59960;SDS011;55902;-37.980;-63.602;2022-07-23T14:13:04;19.17;;;12.48;;
59960;SDS011;55902;-37.980;-63.602;2022-07-23T14:15:31;20.85;;;13.23;;
59960;SDS011;55902;-37.980;-63.602;2022-07-23T14:17:58;21.50;;;12.50;;
59960;SDS011;55902;-37.980;-63.602;2022-07-23T14:20:25;23.83;;;14.13;;
59960;SDS011;55902;-37.980;-63.602;2022-07-23T14:22:52;24.35;;;13.73;;
59960;SDS011;55902;-37.980;-63.602;2022-07-23T14:25:21;20.83;;;13.10;;
59960;SDS011;55902;-37.980;-63.602;2022-07-23T14:27:48;22.52;;;14.43;;
59960;SDS011;55902;-37.980;-63.602;2022-07-23T14:30:14;25.17;;;14.57;;
59960;SDS011;55902;-37.980;-63.602;2022-07-23T14:32:41;22.10;;;13.48;;
59960;SDS011;55902;-37.980;-63.602;2022-07-23T14:35:08;23.17;;;13.63;;
59960;SDS011;55902;-37.980;-63.602;2022-07-23T14:50:39;20.75;;;13.57;;
59960;SDS011;55902;-37.980;-63.602;2022-07-23T14:53:06;21.58;;;13.50;;
59960;SDS011;55902;-37.980;-63.602;2022-07-23T14:55:33;24.52;;;14.00;;
59960;SDS011;55902;-37.980;-63.602;2022-07-23T14:58:00;21.20;;;14.05;;
59960;SDS011;55902;-37.980;-63.602;2022-07-23T15:00:27;21.45;;;13.65;;
59960;SDS011;55902;-37.980;-63.602;2022-07-23T15:02:53;23.63;;;13.88;;
59960;SDS011;55902;-37.980;-63.602;2022-07-23T15:05:21;21.67;;;13.57;;
59960;SDS011;55902;-37.980;-63.602;2022-07-23T15:07:48;22.40;;;13.77;;
59960;SDS011;55902;-37.980;-63.602;2022-07-23T15:10:15;22.38;;;13.77;;
59960;SDS011;55902;-37.980;-63.602;2022-07-23T15:12:42;21.92;;;14.35;;
59960;SDS011;55902;-37.980;-63.602;2022-07-23T15:15:09;22.15;;;13.55;;
59960;SDS011;55902;-37.980;-63.602;2022-07-23T15:17:36;20.27;;;13.40;;
59960;SDS011;55902;-37.980;-63.602;2022-07-23T15:20:03;20.50;;;13.38;;
59960;SDS011;55902;-37.980;-63.602;2022-07-23T15:22:30;20.75;;;13.80;;
59960;SDS011;55902;-37.980;-63.602;2022-07-23T15:24:57;21.15;;;13.52;;
59960;SDS011;55902;-37.980;-63.602;2022-07-23T15:27:24;21.80;;;12.93;;
59960;SDS011;55902;-37.980;-63.602;2022-07-23T15:29:52;22.08;;;13.82;;
59960;SDS011;55902;-37.980;-63.602;2022-07-23T15:32:19;22.05;;;13.90;;
59960;SDS011;55902;-37.980;-63.602;2022-07-23T15:34:46;20.75;;;12.45;;
59960;SDS011;55902;-37.980;-63.602;2022-07-23T15:37:13;18.25;;;12.68;;
59960;SDS011;55902;-37.980;-63.602;2022-07-23T15:39:40;20.13;;;13.10;;
59960;SDS011;55902;-37.980;-63.602;2022-07-23T15:42:07;23.10;;;13.52;;
59960;SDS011;55902;-37.980;-63.602;2022-07-23T15:44:34;18.33;;;13.50;;
59960;SDS011;55902;-37.980;-63.602;2022-07-23T15:47:01;18.95;;;12.82;;
59960;SDS011;55902;-37.980;-63.602;2022-07-23T15:49:28;20.00;;;13.38;;
59960;SDS011;55902;-37.980;-63.602;2022-07-23T15:51:55;21.35;;;13.10;;